createdAt,value
2024-01-30T00:00:52.516Z,14.00
2024-01-30T00:03:48.811Z,12.30
2024-01-30T00:06:35.182Z,13.00
2024-01-30T00:09:21.765Z,14.10
2024-01-30T00:12:08.539Z,14.10
2024-01-30T00:14:55.452Z,14.00
2024-01-30T00:17:42.434Z,14.70
2024-01-30T00:20:28.726Z,12.80
2024-01-30T00:23:15.314Z,14.50
2024-01-30T00:26:01.720Z,14.10
2024-01-30T00:28:48.682Z,15.60
2024-01-30T00:31:37.763Z,14.70
2024-01-30T00:34:26.438Z,16.10
2024-01-30T00:37:12.735Z,15.80
2024-01-30T00:39:59.427Z,15.20
2024-01-30T00:42:46.381Z,14.80
2024-01-30T00:45:32.905Z,15.00
2024-01-30T00:48:19.526Z,16.40
2024-01-30T00:51:06.037Z,15.20
2024-01-30T00:53:52.461Z,15.90
2024-01-30T00:56:39.250Z,16.50
2024-01-30T00:59:25.782Z,18.10
2024-01-30T01:02:12.375Z,17.60
2024-01-30T01:04:59.098Z,16.80
2024-01-30T01:07:48.067Z,15.40
2024-01-30T01:10:34.487Z,15.40
2024-01-30T01:13:21.083Z,14.60
2024-01-30T01:16:07.607Z,17.80
2024-01-30T01:18:54.401Z,14.00
2024-01-30T01:21:40.644Z,16.30
2024-01-30T01:24:27.122Z,17.00
2024-01-30T01:27:13.809Z,18.30
2024-01-30T01:30:00.201Z,18.10
2024-01-30T01:32:51.393Z,16.40
2024-01-30T01:35:37.897Z,16.20
2024-01-30T01:38:24.243Z,13.80
2024-01-30T01:41:10.717Z,16.10
2024-01-30T01:43:57.315Z,13.60
2024-01-30T01:46:44.142Z,15.60
2024-01-30T01:49:31.035Z,15.90
2024-01-30T01:52:17.870Z,14.50
2024-01-30T01:55:05.096Z,16.60
2024-01-30T01:57:53.723Z,16.10
2024-01-30T02:00:42.259Z,17.80
2024-01-30T02:03:29.424Z,13.50
2024-01-30T02:06:16.966Z,12.60
2024-01-30T02:09:05.073Z,13.70
2024-01-30T02:11:52.031Z,15.70
2024-01-30T02:14:49.019Z,15.00
2024-01-30T02:17:35.583Z,18.30
2024-01-30T02:20:25.402Z,18.00
2024-01-30T02:23:13.182Z,16.40
2024-01-30T02:25:59.585Z,14.90
2024-01-30T02:28:47.235Z,14.50
2024-01-30T02:31:33.907Z,15.20
2024-01-30T02:34:21.815Z,15.10
2024-01-30T02:37:08.425Z,16.20
2024-01-30T02:39:54.979Z,14.20
2024-01-30T02:42:42.289Z,18.30
2024-01-30T02:45:28.801Z,18.10
2024-01-30T02:48:15.075Z,17.70
2024-01-30T02:51:02.758Z,18.30
2024-01-30T02:53:49.332Z,18.90
2024-01-30T02:56:35.967Z,19.40
2024-01-30T02:59:22.464Z,21.10
2024-01-30T03:02:09.134Z,18.00
2024-01-30T03:04:55.677Z,17.70
2024-01-30T03:07:42.126Z,18.40
2024-01-30T03:10:30.196Z,17.30
2024-01-30T03:13:16.500Z,19.30
2024-01-30T03:16:03.409Z,19.10
2024-01-30T03:18:50.184Z,18.60
2024-01-30T03:21:36.781Z,18.00
2024-01-30T03:24:22.819Z,15.90
2024-01-30T03:27:10.007Z,17.20
2024-01-30T03:29:56.594Z,12.80
2024-01-30T03:32:44.409Z,17.30
2024-01-30T03:35:30.570Z,15.70
2024-01-30T03:38:17.019Z,15.80
2024-01-30T03:41:03.514Z,17.80
2024-01-30T03:43:49.637Z,18.70
2024-01-30T03:46:36.382Z,17.30
2024-01-30T03:49:23.253Z,15.80
2024-01-30T03:52:09.967Z,13.00
2024-01-30T03:54:56.215Z,14.30
2024-01-30T03:57:42.738Z,16.00
2024-01-30T04:00:29.441Z,16.40
2024-01-30T04:03:16.284Z,14.20
2024-01-30T04:06:05.550Z,17.80
2024-01-30T04:08:52.054Z,16.90
2024-01-30T04:11:38.686Z,16.40
2024-01-30T04:14:25.193Z,17.40
2024-01-30T04:17:11.489Z,15.20
2024-01-30T04:19:58.141Z,16.10
2024-01-30T04:22:46.057Z,16.50
2024-01-30T04:25:32.675Z,16.70
2024-01-30T04:28:19.681Z,16.10
2024-01-30T04:31:06.297Z,16.80
2024-01-30T04:33:52.708Z,16.30
2024-01-30T04:36:39.285Z,13.80
2024-01-30T04:39:25.717Z,15.30
2024-01-30T04:42:12.396Z,17.20
2024-01-30T04:44:58.921Z,17.60
2024-01-30T04:47:46.637Z,19.00
2024-01-30T04:50:32.880Z,18.10
2024-01-30T04:53:19.648Z,16.90
2024-01-30T04:56:06.953Z,15.30
2024-01-30T04:58:53.519Z,16.10
2024-01-30T05:01:40.340Z,16.10
2024-01-30T05:04:27.044Z,17.90
2024-01-30T05:07:13.454Z,17.60
2024-01-30T05:10:01.669Z,18.40
2024-01-30T05:12:49.860Z,16.10
2024-01-30T05:15:36.294Z,17.10
2024-01-30T05:18:23.051Z,14.20
2024-01-30T05:21:09.656Z,16.60
2024-01-30T05:23:56.497Z,17.90
2024-01-30T05:26:43.210Z,17.70
2024-01-30T05:29:29.544Z,18.60
2024-01-30T05:32:15.986Z,15.50
2024-01-30T05:35:02.733Z,18.40
2024-01-30T05:37:52.540Z,18.70
2024-01-30T05:40:39.088Z,15.60
2024-01-30T05:43:25.820Z,16.90
2024-01-30T05:46:12.313Z,18.90
2024-01-30T05:48:58.780Z,17.90
2024-01-30T05:51:45.261Z,19.20
2024-01-30T05:54:31.845Z,17.70
2024-01-30T05:57:18.528Z,19.90
2024-01-30T06:00:08.100Z,18.70
2024-01-30T06:02:54.758Z,18.00
2024-01-30T06:05:41.412Z,15.70
2024-01-30T06:08:27.644Z,16.00
2024-01-30T06:11:14.203Z,14.50
2024-01-30T06:14:00.713Z,15.60
2024-01-30T06:16:47.025Z,14.60
2024-01-30T06:19:33.581Z,15.00
2024-01-30T06:22:20.465Z,16.20
2024-01-30T06:25:07.438Z,16.80
2024-01-30T06:27:54.066Z,16.80
2024-01-30T06:30:40.564Z,16.80
2024-01-30T06:33:26.806Z,14.10
2024-01-30T06:36:13.297Z,13.50
2024-01-30T06:39:00.204Z,13.70
2024-01-30T06:41:47.270Z,13.70
2024-01-30T06:44:33.720Z,14.10
2024-01-30T06:47:20.068Z,16.50
2024-01-30T06:50:07.647Z,17.50
2024-01-30T06:52:53.982Z,16.90
2024-01-30T06:55:40.362Z,17.40
2024-01-30T06:58:27.214Z,16.90
2024-01-30T07:01:13.645Z,15.80
2024-01-30T07:04:00.158Z,16.70
2024-01-30T07:06:46.921Z,16.10
2024-01-30T07:09:34.674Z,13.30
2024-01-30T07:12:21.122Z,17.40
2024-01-30T07:15:10.853Z,15.70
2024-01-30T07:17:57.471Z,14.60
2024-01-30T07:20:46.857Z,15.00
2024-01-30T07:23:35.148Z,14.40
2024-01-30T07:26:21.733Z,14.20
2024-01-30T07:29:07.816Z,15.20
2024-01-30T07:31:54.466Z,16.20
2024-01-30T07:34:49.322Z,16.70
2024-01-30T07:37:40.217Z,16.90
2024-01-30T07:40:26.571Z,17.30
2024-01-30T07:43:13.147Z,15.30
2024-01-30T07:46:01.457Z,16.30
2024-01-30T07:48:47.712Z,16.70
2024-01-30T07:51:34.476Z,14.80
2024-01-30T07:54:20.818Z,16.70
2024-01-30T07:57:07.381Z,15.20
2024-01-30T07:59:54.740Z,16.40
2024-01-30T08:02:41.053Z,16.10
2024-01-30T08:05:27.265Z,19.70
2024-01-30T08:08:14.024Z,16.30
2024-01-30T08:11:00.163Z,14.70
2024-01-30T08:13:46.783Z,18.00
2024-01-30T08:16:33.713Z,19.10
2024-01-30T08:19:19.928Z,17.40
2024-01-30T08:22:06.424Z,18.00
2024-01-30T08:24:53.146Z,16.80
2024-01-30T08:27:39.928Z,16.80
2024-01-30T08:30:26.344Z,16.50
2024-01-30T08:33:14.242Z,16.00
2024-01-30T08:36:00.913Z,14.80
2024-01-30T08:38:47.495Z,14.20
2024-01-30T08:41:34.684Z,14.30
2024-01-30T08:44:21.769Z,12.20
2024-01-30T08:47:08.268Z,15.70
2024-01-30T08:49:54.903Z,14.70
2024-01-30T08:52:41.398Z,15.00
2024-01-30T08:55:27.795Z,14.50
2024-01-30T08:58:14.399Z,14.90
2024-01-30T09:01:01.009Z,15.20
2024-01-30T09:03:47.508Z,14.90
2024-01-30T09:06:33.640Z,13.50
2024-01-30T09:09:19.933Z,16.40
2024-01-30T09:12:09.713Z,14.00
2024-01-30T09:14:56.349Z,14.70
2024-01-30T09:17:42.772Z,16.30
2024-01-30T09:20:32.859Z,14.60
2024-01-30T09:23:21.127Z,14.90
2024-01-30T09:26:07.492Z,13.70
2024-01-30T09:28:54.016Z,13.50
2024-01-30T09:31:44.154Z,14.10
2024-01-30T09:34:31.066Z,14.60
2024-01-30T09:37:19.199Z,14.50
2024-01-30T09:40:07.046Z,14.60
2024-01-30T09:42:54.738Z,14.90
2024-01-30T09:45:44.477Z,15.50
2024-01-30T09:48:31.966Z,15.60
2024-01-30T09:51:19.412Z,14.10
2024-01-30T09:54:05.843Z,15.00
2024-01-30T09:56:52.012Z,15.10
2024-01-30T09:59:38.373Z,14.60
2024-01-30T10:02:24.782Z,14.40
2024-01-30T10:05:15.881Z,14.90
2024-01-30T10:08:08.741Z,13.90
2024-01-30T10:10:58.564Z,14.70
2024-01-30T10:13:46.853Z,14.30
2024-01-30T10:16:37.860Z,13.80
2024-01-30T10:19:25.410Z,14.20
2024-01-30T10:22:12.665Z,13.20
2024-01-30T10:25:03.414Z,13.30
2024-01-30T10:27:58.948Z,13.50
2024-01-30T10:30:45.288Z,12.50
2024-01-30T10:33:32.313Z,13.30
2024-01-30T10:36:21.373Z,11.70
2024-01-30T10:39:07.777Z,12.90
2024-01-30T10:41:58.725Z,13.80
2024-01-30T10:45:05.932Z,13.10
2024-01-30T10:47:58.800Z,13.60
2024-01-30T10:50:51.055Z,13.00
2024-01-30T10:53:47.294Z,12.20
2024-01-30T10:56:34.630Z,12.60
2024-01-30T10:59:24.358Z,10.80
2024-01-30T11:02:11.802Z,12.10
2024-01-30T11:05:00.695Z,12.30
2024-01-30T11:07:47.438Z,12.20
2024-01-30T11:10:45.243Z,13.00
2024-01-30T11:13:32.197Z,11.90
2024-01-30T11:16:20.716Z,11.50
2024-01-30T11:19:14.641Z,11.20
2024-01-30T11:22:01.390Z,13.40
2024-01-30T11:24:48.498Z,14.40
2024-01-30T11:27:35.062Z,11.80
2024-01-30T11:30:26.508Z,12.00
2024-01-30T11:33:33.639Z,10.60
2024-01-30T11:36:26.059Z,12.50
2024-01-30T11:39:15.929Z,13.00
2024-01-30T11:42:08.285Z,11.10
2024-01-30T11:44:54.641Z,11.10
2024-01-30T11:47:44.533Z,10.70
2024-01-30T11:50:35.565Z,11.20
2024-01-30T11:53:23.021Z,11.10
2024-01-30T11:56:09.282Z,11.30
2024-01-30T11:58:55.695Z,12.00
2024-01-30T12:01:42.297Z,13.20
2024-01-30T12:04:30.538Z,11.90
2024-01-30T12:07:17.306Z,12.00
2024-01-30T12:10:04.049Z,11.60
2024-01-30T12:12:51.524Z,12.50
2024-01-30T12:15:37.871Z,13.20
2024-01-30T12:18:24.132Z,13.20
2024-01-30T12:21:10.846Z,12.80
2024-01-30T12:23:58.497Z,14.10
2024-01-30T12:26:44.874Z,15.00
2024-01-30T12:29:36.265Z,14.40
2024-01-30T12:32:24.771Z,14.20
2024-01-30T12:35:16.817Z,14.80
2024-01-30T12:38:03.926Z,15.20
2024-01-30T12:40:55.802Z,14.50
2024-01-30T12:43:43.410Z,14.20
2024-01-30T12:46:30.392Z,15.80
2024-01-30T12:49:17.420Z,14.40
2024-01-30T12:52:04.458Z,13.70
2024-01-30T12:54:52.014Z,14.30
2024-01-30T12:57:40.066Z,14.00
2024-01-30T13:00:26.587Z,15.50
2024-01-30T13:03:13.044Z,14.30
2024-01-30T13:05:59.878Z,14.40
2024-01-30T13:08:46.206Z,15.50
2024-01-30T13:11:32.599Z,16.20
2024-01-30T13:14:19.987Z,16.10
2024-01-30T13:17:06.594Z,16.90
2024-01-30T13:19:55.588Z,16.20
2024-01-30T13:22:44.972Z,16.70
2024-01-30T13:25:32.094Z,17.80
2024-01-30T13:28:18.629Z,17.30
2024-01-30T13:31:07.061Z,16.10
2024-01-30T13:33:54.866Z,16.00
2024-01-30T13:36:41.946Z,13.20
2024-01-30T13:39:33.485Z,15.90
2024-01-30T13:42:24.028Z,17.30
2024-01-30T13:45:13.080Z,15.50
2024-01-30T13:47:59.746Z,17.30
2024-01-30T13:50:46.492Z,17.80
2024-01-30T13:53:32.750Z,14.40
2024-01-30T13:56:20.376Z,17.30
2024-01-30T13:59:06.726Z,17.80
2024-01-30T14:01:53.591Z,18.10
2024-01-30T14:04:40.697Z,18.90
2024-01-30T14:07:27.154Z,18.90
2024-01-30T14:10:15.053Z,17.60
2024-01-30T14:13:02.316Z,16.90
2024-01-30T14:15:48.369Z,15.60
2024-01-30T14:18:35.129Z,16.90
2024-01-30T14:21:21.405Z,17.80
2024-01-30T14:24:07.822Z,15.70
2024-01-30T14:26:54.611Z,16.40
2024-01-30T14:29:41.960Z,15.50
2024-01-30T14:32:28.620Z,15.50
2024-01-30T14:35:16.213Z,15.60
2024-01-30T14:38:04.927Z,15.60
2024-01-30T14:40:51.678Z,14.40
2024-01-30T14:43:38.100Z,15.20
2024-01-30T14:46:27.332Z,14.40
2024-01-30T14:49:16.039Z,14.50
2024-01-30T14:52:04.839Z,15.40
2024-01-30T14:54:51.265Z,16.70
2024-01-30T14:57:38.445Z,16.50
2024-01-30T15:00:25.110Z,14.80
2024-01-30T15:03:11.384Z,16.00
2024-01-30T15:05:57.693Z,15.90
2024-01-30T15:08:44.460Z,16.50
2024-01-30T15:11:32.456Z,15.40
2024-01-30T15:14:19.187Z,16.80
2024-01-30T15:17:05.412Z,15.20
2024-01-30T15:19:52.297Z,15.90
2024-01-30T15:22:41.069Z,16.20
2024-01-30T15:25:29.589Z,14.30
2024-01-30T15:28:15.964Z,16.30
2024-01-30T15:31:02.560Z,16.60
2024-01-30T15:33:48.749Z,16.50
2024-01-30T15:36:35.611Z,16.50
2024-01-30T15:39:21.643Z,17.20
2024-01-30T15:42:08.099Z,16.40
2024-01-30T15:44:54.129Z,13.50
2024-01-30T15:47:43.283Z,16.80
2024-01-30T15:50:29.831Z,15.50
2024-01-30T15:53:16.117Z,14.70
2024-01-30T15:56:02.756Z,13.90
2024-01-30T15:58:50.281Z,18.40
2024-01-30T16:01:36.945Z,15.40
2024-01-30T16:04:25.544Z,17.80
2024-01-30T16:07:11.985Z,15.50
2024-01-30T16:09:58.284Z,16.10
2024-01-30T16:12:46.381Z,18.90
2024-01-30T16:15:33.971Z,19.20
2024-01-30T16:18:20.612Z,18.60
2024-01-30T16:21:07.131Z,15.60
2024-01-30T16:23:54.567Z,15.00
2024-01-30T16:26:40.904Z,15.10
2024-01-30T16:29:27.090Z,15.90
2024-01-30T16:32:14.179Z,16.20
2024-01-30T16:35:01.010Z,17.30
2024-01-30T16:37:47.208Z,17.10
2024-01-30T16:40:34.473Z,15.60
2024-01-30T16:43:21.135Z,16.50
2024-01-30T16:46:07.291Z,17.30
2024-01-30T16:48:54.082Z,17.40
2024-01-30T16:51:40.393Z,16.70
2024-01-30T16:54:26.930Z,17.70
2024-01-30T16:57:13.283Z,15.20
2024-01-30T16:59:59.534Z,17.80
2024-01-30T17:02:46.127Z,17.70
2024-01-30T17:05:33.320Z,16.00
2024-01-30T17:08:19.573Z,15.90
2024-01-30T17:11:06.342Z,17.40
2024-01-30T17:13:52.843Z,17.60
2024-01-30T17:16:39.727Z,16.40
2024-01-30T17:19:26.286Z,19.60
2024-01-30T17:22:13.196Z,17.50
2024-01-30T17:24:59.925Z,18.60
2024-01-30T17:27:46.411Z,19.30
2024-01-30T17:30:32.475Z,15.50
2024-01-30T17:33:18.836Z,17.70
2024-01-30T17:36:05.702Z,15.40
2024-01-30T17:38:52.185Z,15.60
2024-01-30T17:41:38.711Z,19.00
2024-01-30T17:44:24.812Z,17.80
2024-01-30T17:47:11.484Z,16.90
2024-01-30T17:49:58.169Z,16.10
2024-01-30T17:52:44.317Z,18.90
2024-01-30T17:55:30.701Z,18.50
2024-01-30T17:58:16.993Z,18.50
2024-01-30T18:01:03.737Z,18.30
2024-01-30T18:03:52.763Z,19.40
2024-01-30T18:06:38.989Z,14.30
2024-01-30T18:09:26.934Z,18.70
2024-01-30T18:12:15.332Z,17.70
2024-01-30T18:15:03.485Z,16.60
2024-01-30T18:17:49.794Z,17.30
2024-01-30T18:20:36.523Z,17.50
2024-01-30T18:23:23.362Z,14.40
2024-01-30T18:26:10.053Z,15.40
2024-01-30T18:28:56.669Z,15.00
2024-01-30T18:31:43.500Z,15.90
2024-01-30T18:34:30.120Z,16.70
2024-01-30T18:37:16.664Z,17.70
2024-01-30T18:40:07.165Z,15.80
2024-01-30T18:42:53.585Z,17.20
2024-01-30T18:45:39.913Z,17.00
2024-01-30T18:48:26.142Z,18.10
2024-01-30T18:51:18.684Z,16.70
2024-01-30T18:54:04.961Z,16.20
2024-01-30T18:56:51.155Z,15.50
2024-01-30T18:59:38.062Z,13.40
2024-01-30T19:02:24.517Z,14.30
2024-01-30T19:05:11.244Z,16.40
2024-01-30T19:07:58.361Z,16.90
2024-01-30T19:10:46.304Z,15.50
2024-01-30T19:13:35.023Z,16.70
2024-01-30T19:16:21.585Z,19.80
2024-01-30T19:19:08.223Z,18.80
2024-01-30T19:21:54.550Z,16.40
2024-01-30T19:24:41.068Z,16.20
2024-01-30T19:27:28.291Z,16.80
2024-01-30T19:30:16.067Z,16.30
2024-01-30T19:33:02.529Z,15.50
2024-01-30T19:35:48.708Z,15.80
2024-01-30T19:38:35.215Z,15.70
2024-01-30T19:41:21.714Z,15.60
2024-01-30T19:44:10.061Z,16.90
2024-01-30T19:47:01.175Z,15.80
2024-01-30T19:49:47.546Z,12.90
2024-01-30T19:52:34.761Z,13.70
2024-01-30T19:55:22.120Z,13.00
2024-01-30T19:58:09.028Z,14.20
2024-01-30T20:00:55.685Z,12.50
2024-01-30T20:03:42.362Z,10.70
2024-01-30T20:06:30.654Z,13.50
2024-01-30T20:09:21.198Z,15.00
2024-01-30T20:12:07.367Z,14.70
2024-01-30T20:14:54.084Z,13.20
2024-01-30T20:17:41.410Z,13.00
2024-01-30T20:20:28.039Z,14.30
2024-01-30T20:23:15.448Z,14.50
2024-01-30T20:26:03.814Z,14.00
2024-01-30T20:28:54.051Z,13.10
2024-01-30T20:31:40.838Z,12.90
2024-01-30T20:34:28.667Z,14.60
2024-01-30T20:37:14.975Z,15.10
2024-01-30T20:40:02.461Z,14.40
2024-01-30T20:42:48.961Z,14.60
2024-01-30T20:45:35.533Z,13.50
2024-01-30T20:48:22.017Z,15.80
2024-01-30T20:51:08.409Z,12.40
2024-01-30T20:53:56.537Z,14.50
2024-01-30T20:56:43.414Z,13.80
2024-01-30T20:59:29.907Z,14.60
2024-01-30T21:02:16.470Z,12.40
2024-01-30T21:05:03.232Z,11.40
2024-01-30T21:07:53.352Z,13.80
2024-01-30T21:10:40.408Z,16.10
2024-01-30T21:13:26.660Z,14.50
2024-01-30T21:16:13.420Z,14.60
2024-01-30T21:18:59.881Z,14.30
2024-01-30T21:21:46.525Z,15.00
2024-01-30T21:24:32.936Z,14.20
2024-01-30T21:27:19.308Z,16.20
2024-01-30T21:30:07.042Z,16.10
2024-01-30T21:32:54.019Z,15.60
2024-01-30T21:35:40.799Z,13.30
2024-01-30T21:38:28.080Z,13.80
2024-01-30T21:41:17.853Z,13.80
2024-01-30T21:44:04.275Z,14.80
2024-01-30T21:46:50.734Z,15.70
2024-01-30T21:49:41.607Z,12.90
2024-01-30T21:52:28.785Z,15.70
2024-01-30T21:55:15.633Z,14.90
2024-01-30T21:58:01.913Z,14.00
2024-01-30T22:00:48.527Z,14.20
2024-01-30T22:03:35.096Z,14.60
2024-01-30T22:06:21.759Z,16.00
2024-01-30T22:09:08.182Z,15.80
2024-01-30T22:11:54.765Z,16.10
2024-01-30T22:14:40.967Z,15.40
2024-01-30T22:17:27.367Z,15.70
2024-01-30T22:20:16.563Z,16.10
2024-01-30T22:23:03.414Z,14.20
2024-01-30T22:25:51.028Z,12.90
2024-01-30T22:28:37.953Z,13.80
2024-01-30T22:31:24.552Z,16.90
2024-01-30T22:34:10.832Z,14.10
2024-01-30T22:36:57.392Z,14.10
2024-01-30T22:39:43.401Z,15.20
2024-01-30T22:42:30.337Z,12.70
2024-01-30T22:45:17.164Z,14.60
2024-01-30T22:48:04.064Z,15.00
2024-01-30T22:50:50.462Z,16.10
2024-01-30T22:53:36.633Z,15.40
2024-01-30T22:56:22.603Z,15.30
2024-01-30T22:59:09.092Z,14.70
2024-01-30T23:01:55.421Z,15.00
2024-01-30T23:04:41.595Z,15.40
2024-01-30T23:07:28.109Z,14.40
2024-01-30T23:10:14.928Z,14.90
2024-01-30T23:13:01.781Z,13.90
2024-01-30T23:15:48.474Z,14.50
2024-01-30T23:18:35.217Z,14.20
2024-01-30T23:21:22.007Z,11.30
2024-01-30T23:24:08.538Z,14.40
2024-01-30T23:26:54.976Z,14.00
2024-01-30T23:29:41.009Z,11.20
2024-01-30T23:32:34.778Z,10.60
2024-01-30T23:38:30.003Z,11.60
2024-01-30T23:41:16.498Z,11.80
2024-01-30T23:44:03.054Z,13.60
2024-01-30T23:46:49.301Z,13.10
2024-01-30T23:49:35.750Z,11.40
2024-01-30T23:52:22.588Z,12.40
2024-01-30T23:55:09.684Z,14.70
2024-01-30T23:57:56.416Z,12.70
